Time;durP1;ratioP1;P1;durP2;ratioP2;P2;SDS_P1;SDS_P2;PMS_P1;PMS_P2;Temp;Humidity;BMP_temperature;BMP_pressure;BME280_temperature;BME280_humidity;BME280_pressure;Samples;Min_cycle;Max_cycle;Signal;HPM_P1;HPM_P2
2022/08/15 00:01:04;;;;;;;11.48;4.50;;;;;;;23.15;57.48;100389.66;4989190;28;20030;-71
2022/08/15 00:03:37;;;;;;;9.20;3.97;;;;;;;22.94;58.18;100389.31;4969421;28;20117;-71
2022/08/15 00:06:07;;;;;;;10.15;4.10;;;;;;;23.15;57.70;100390.50;4971505;28;20059;-71
2022/08/15 00:08:36;;;;;;;9.50;4.55;;;;;;;23.17;57.44;100388.31;4983888;28;20056;-71
2022/08/15 00:11:09;;;;;;;13.48;4.70;;;;;;;23.22;57.30;100384.81;4977005;28;20082;-71
2022/08/15 00:13:37;;;;;;;10.10;4.05;;;;;;;23.14;58.04;100385.22;4970600;28;20027;-71
2022/08/15 00:16:05;;;;;;;12.10;4.28;;;;;;;22.90;58.99;100379.88;4976320;28;20023;-71
2022/08/15 00:18:31;;;;;;;18.02;4.93;;;;;;;22.80;59.21;100381.59;4984292;28;20117;-71
2022/08/15 00:20:56;;;;;;;8.00;4.00;;;;;;;22.85;59.16;100378.94;4982210;28;20037;-72
2022/08/15 00:23:23;;;;;;;13.05;4.20;;;;;;;22.88;58.81;100379.28;4971619;28;20027;-71
2022/08/15 00:25:54;;;;;;;25.05;4.90;;;;;;;22.82;59.16;100380.28;4970355;28;20049;-71
2022/08/15 00:28:20;;;;;;;10.93;4.00;;;;;;;22.77;59.30;100382.13;4970760;28;20049;-72
2022/08/15 00:30:46;;;;;;;11.20;4.53;;;;;;;22.82;58.80;100384.94;4972200;28;20099;-71
2022/08/15 00:33:14;;;;;;;12.75;4.25;;;;;;;22.64;59.67;100377.78;4980741;28;20058;-71
2022/08/15 00:35:41;;;;;;;18.67;4.53;;;;;;;22.52;59.88;100371.47;4970242;28;20023;-71
2022/08/15 00:38:08;;;;;;;17.23;4.53;;;;;;;22.63;59.53;100365.06;4983757;28;20026;-71
2022/08/15 00:41:39;;;;;;;9.43;4.20;;;;;;;22.63;59.32;100360.38;4971712;28;20019;-71
2022/08/15 00:43:22;;;;;;;12.52;4.75;;;;;;;22.60;60.11;100354.50;4969946;28;20026;-70
2022/08/15 00:45:48;;;;;;;11.50;3.90;;;;;;;22.57;60.09;100357.78;4972074;28;20018;-70
2022/08/15 00:50:58;;;;;;;13.25;4.68;;;;;;;22.37;60.35;100350.81;4973371;28;20093;-71
2022/08/15 00:53:25;;;;;;;17.70;4.25;;;;;;;22.44;60.46;100353.41;4977727;28;20023;-70
2022/08/15 00:55:50;;;;;;;16.10;5.07;;;;;;;22.33;60.83;100344.13;4975750;28;20019;-70
2022/08/15 00:58:16;;;;;;;11.52;4.63;;;;;;;22.18;61.67;100347.44;4969959;28;20026;-70
2022/08/15 01:00:45;;;;;;;6.55;4.35;;;;;;;22.06;61.35;100340.28;4970647;28;20066;-70
2022/08/15 01:03:16;;;;;;;16.45;4.93;;;;;;;22.16;61.83;100348.75;4971160;28;20021;-70
2022/08/15 01:05:46;;;;;;;8.32;4.47;;;;;;;21.99;62.09;100347.88;4987169;28;20014;-71
2022/08/15 01:08:14;;;;;;;13.32;4.13;;;;;;;21.86;62.62;100349.84;4992055;28;20617;-69
2022/08/15 01:10:40;;;;;;;12.00;4.75;;;;;;;21.90;62.09;100351.00;4976424;28;20030;-69
2022/08/15 01:13:06;;;;;;;15.07;4.10;;;;;;;21.95;62.18;100342.81;4974540;28;20027;-70
2022/08/15 01:15:31;;;;;;;12.52;3.90;;;;;;;21.99;61.74;100342.34;4972462;28;20030;-70
2022/08/15 01:17:57;;;;;;;12.73;4.32;;;;;;;21.93;62.25;100345.00;4972513;28;20042;-70
2022/08/15 01:20:30;;;;;;;6.65;4.05;;;;;;;21.81;62.23;100335.09;4974104;28;20138;-72
2022/08/15 01:23:14;;;;;;;9.50;4.78;;;;;;;21.77;62.55;100334.75;4973373;28;20018;-71
2022/08/15 01:25:56;;;;;;;10.65;4.35;;;;;;;21.66;63.39;100327.38;4986555;28;20054;-72
2022/08/15 01:28:27;;;;;;;;;;;;;;;21.64;63.35;100324.00;4976839;28;20022;-71
2022/08/15 01:31:03;;;;;;;11.40;3.97;;;;;;;21.68;62.91;100325.22;4993965;28;19913;-72
2022/08/15 01:33:31;;;;;;;15.05;4.45;;;;;;;21.68;63.02;100330.72;4968580;28;20031;-71
2022/08/15 01:35:58;;;;;;;7.40;4.15;;;;;;;21.57;63.24;100334.34;4972986;28;20110;-73
2022/08/15 01:38:36;;;;;;;11.10;4.28;;;;;;;21.54;63.71;100332.09;4986167;28;20099;-69
2022/08/15 01:41:20;;;;;;;21.13;4.72;;;;;;;21.49;63.75;100329.22;4984325;28;20106;-69
2022/08/15 01:44:12;;;;;;;12.82;4.43;;;;;;;21.33;64.54;100323.38;4967384;28;20027;-69
2022/08/15 01:46:50;;;;;;;;;;;;;;;21.11;65.38;100322.31;4979011;28;20041;-70
2022/08/15 01:49:32;;;;;;;13.90;4.35;;;;;;;21.22;65.26;100310.44;4987491;28;19910;-70
2022/08/15 01:52:00;;;;;;;7.07;3.67;;;;;;;21.23;65.11;100306.59;4969028;28;20021;-69
2022/08/15 01:54:29;;;;;;;13.45;4.70;;;;;;;21.03;65.29;100317.16;4986380;28;20033;-71
2022/08/15 01:56:56;;;;;;;14.00;4.22;;;;;;;21.18;64.94;100303.72;4997038;28;20026;-70
2022/08/15 01:59:23;;;;;;;14.52;4.57;;;;;;;21.23;64.71;100301.09;4980985;28;20014;-70
2022/08/15 02:01:57;;;;;;;12.73;5.85;;;;;;;21.15;64.76;100293.22;4983453;28;20085;-70
2022/08/15 02:04:29;;;;;;;11.18;4.60;;;;;;;21.19;65.03;100299.94;4990254;28;20027;-69
2022/08/15 02:06:55;;;;;;;;;;;;;;;21.23;65.11;100295.59;4977681;28;20014;-69
2022/08/15 02:09:21;;;;;;;11.35;4.32;;;;;;;21.24;64.78;100297.25;4974939;28;19913;-71
2022/08/15 02:11:50;;;;;;;18.38;5.07;;;;;;;21.13;65.22;100289.88;4986347;28;20022;-71
2022/08/15 02:14:15;;;;;;;10.30;4.13;;;;;;;20.91;65.93;100302.56;4971549;28;20029;-70
2022/08/15 02:16:42;;;;;;;17.38;4.45;;;;;;;21.03;65.45;100295.16;4977902;28;20022;-71
2022/08/15 02:19:10;;;;;;;9.52;3.83;;;;;;;20.92;65.20;100296.00;4973142;28;20030;-70
2022/08/15 02:21:37;;;;;;;7.03;3.80;;;;;;;20.84;66.19;100298.03;4977393;28;20037;-71
2022/08/15 02:24:06;;;;;;;10.60;3.85;;;;;;;20.91;65.43;100297.06;4976078;28;20026;-71
2022/08/15 02:26:31;;;;;;;14.25;4.03;;;;;;;20.86;66.24;100301.41;4970523;28;20026;-71
2022/08/15 02:28:57;;;;;;;14.13;5.05;;;;;;;20.67;66.86;100286.09;4979532;28;20034;-71
2022/08/15 02:31:25;;;;;;;8.93;3.80;;;;;;;20.79;66.61;100286.06;4980792;28;20014;-71
2022/08/15 02:33:58;;;;;;;9.05;4.03;;;;;;;20.68;66.97;100293.25;4966677;28;20026;-70
2022/08/15 02:36:25;;;;;;;16.00;4.15;;;;;;;20.73;66.74;100285.09;4973233;28;20019;-70
2022/08/15 02:38:53;;;;;;;13.27;3.63;;;;;;;20.70;67.27;100295.75;5003463;28;20022;-70
2022/08/15 02:41:25;;;;;;;10.00;4.40;;;;;;;20.63;67.75;100290.38;4981243;28;20026;-70
2022/08/15 02:43:51;;;;;;;12.82;5.82;;;;;;;20.59;67.56;100295.50;4974245;28;20089;-70
2022/08/15 02:46:17;;;;;;;14.75;4.65;;;;;;;20.40;68.43;100295.81;4969201;28;20042;-70
2022/08/15 02:48:46;;;;;;;13.50;4.10;;;;;;;20.48;68.12;100293.59;4970096;28;20030;-70
2022/08/15 02:51:14;;;;;;;9.40;3.88;;;;;;;20.41;68.69;100294.72;4968099;28;20030;-70
2022/08/15 02:53:48;;;;;;;11.77;3.85;;;;;;;20.25;68.97;100294.38;4982279;28;20119;-70
2022/08/15 02:56:20;;;;;;;17.08;4.35;;;;;;;20.28;69.00;100293.91;4972254;28;20146;-70
2022/08/15 02:58:47;;;;;;;11.85;4.22;;;;;;;20.46;68.29;100287.47;4972632;28;20095;-70
2022/08/15 03:01:13;;;;;;;13.88;4.28;;;;;;;20.45;68.63;100287.72;4980703;28;20049;-70
2022/08/15 03:03:41;;;;;;;21.42;4.93;;;;;;;20.35;68.74;100285.56;4980313;28;20109;-69
2022/08/15 03:06:08;;;;;;;15.98;4.50;;;;;;;20.25;69.38;100283.38;4985132;28;20031;-72
2022/08/15 03:08:36;;;;;;;10.05;3.75;;;;;;;20.26;69.26;100289.69;4971356;28;20026;-70
2022/08/15 03:11:04;;;;;;;12.07;4.45;;;;;;;20.22;69.79;100297.59;4978630;28;20025;-69
2022/08/15 03:13:31;;;;;;;15.07;4.45;;;;;;;20.22;69.59;100297.59;4975623;28;20022;-70
2022/08/15 03:15:57;;;;;;;9.52;4.20;;;;;;;20.28;69.60;100302.16;4984774;28;20049;-70
2022/08/15 03:18:25;;;;;;;14.00;5.47;;;;;;;20.26;69.90;100304.28;4983115;28;20121;-69
2022/08/15 03:20:51;;;;;;;10.13;3.80;;;;;;;20.24;69.60;100298.19;4970706;28;20023;-69
2022/08/15 03:23:22;;;;;;;12.00;3.85;;;;;;;20.26;69.33;100290.53;4985627;28;20037;-71
2022/08/15 03:25:53;;;;;;;5.80;3.88;;;;;;;20.15;70.30;100296.88;4984397;28;20023;-71
2022/08/15 03:28:23;;;;;;;11.65;4.13;;;;;;;20.19;69.99;100295.31;4989828;28;20027;-68
2022/08/15 03:30:51;;;;;;;15.80;4.15;;;;;;;20.23;70.16;100290.19;4976850;28;20034;-69
2022/08/15 03:33:17;;;;;;;10.98;4.95;;;;;;;20.23;69.64;100285.53;4986070;28;20090;-70
2022/08/15 03:35:47;;;;;;;25.17;4.43;;;;;;;20.14;70.06;100275.91;4979892;28;20073;-70
2022/08/15 03:38:13;;;;;;;12.55;4.18;;;;;;;20.10;70.60;100280.22;4978604;28;20081;-71
2022/08/15 03:40:41;;;;;;;18.23;4.57;;;;;;;20.19;70.21;100284.31;4983573;28;20091;-70
2022/08/15 03:43:10;;;;;;;18.33;4.60;;;;;;;20.24;70.18;100284.44;4969933;28;20056;-71
2022/08/15 03:45:35;;;;;;;11.82;4.57;;;;;;;20.30;70.05;100280.75;4981184;28;20037;-70
2022/08/15 03:48:01;;;;;;;13.60;4.03;;;;;;;20.31;69.75;100293.41;4970909;28;20023;-70
2022/08/15 03:50:28;;;;;;;10.18;4.45;;;;;;;20.12;70.11;100286.31;4983978;28;20509;-70
2022/08/15 03:53:01;;;;;;;9.35;4.50;;;;;;;20.20;70.26;100288.72;4973282;28;20069;-69
2022/08/15 03:55:30;;;;;;;17.23;4.65;;;;;;;20.18;70.09;100277.13;4985127;28;20442;-71
2022/08/15 03:57:57;;;;;;;10.57;4.50;;;;;;;20.05;70.86;100288.34;4983300;28;20034;-71
2022/08/15 04:00:27;;;;;;;9.38;3.78;;;;;;;20.02;70.70;100288.81;4986219;28;20034;-70
2022/08/15 04:03:22;;;;;;;10.68;4.30;;;;;;;20.03;70.92;100287.75;4975689;28;20031;-70
2022/08/15 04:05:50;;;;;;;13.52;4.47;;;;;;;19.98;70.70;100293.09;4970035;28;20062;-71
2022/08/15 04:08:17;;;;;;;13.65;4.95;;;;;;;19.96;71.79;100279.59;4995387;28;20647;-71
2022/08/15 04:10:43;;;;;;;13.85;4.70;;;;;;;19.86;71.96;100283.97;4985059;28;20050;-70
2022/08/15 04:13:10;;;;;;;11.75;4.72;;;;;;;20.06;71.08;100281.78;4982335;28;20065;-69
2022/08/15 04:15:37;;;;;;;11.93;4.80;;;;;;;19.95;71.44;100279.81;4972453;28;20066;-70
2022/08/15 04:18:03;;;;;;;15.27;5.18;;;;;;;20.02;71.38;100283.31;4986591;28;20090;-70
2022/08/15 04:20:30;;;;;;;9.73;5.00;;;;;;;20.01;71.60;100281.63;4974560;28;20029;-69
2022/08/15 04:22:56;;;;;;;12.10;4.03;;;;;;;20.03;71.46;100280.34;4973856;28;20045;-70
2022/08/15 04:25:27;;;;;;;15.38;4.35;;;;;;;20.03;71.96;100282.25;4977823;28;20030;-70
2022/08/15 04:27:56;;;;;;;10.30;5.25;;;;;;;20.09;71.50;100284.06;4972592;28;20018;-70
2022/08/15 04:30:24;;;;;;;16.70;4.78;;;;;;;20.04;71.68;100281.19;4997612;28;20035;-69
2022/08/15 04:32:56;;;;;;;11.57;4.97;;;;;;;20.07;71.39;100280.69;4992614;28;20402;-71
2022/08/15 04:35:22;;;;;;;12.40;4.57;;;;;;;20.02;71.82;100288.81;4980569;28;20038;-71
2022/08/15 04:37:48;;;;;;;9.07;4.43;;;;;;;19.98;72.05;100276.63;4977560;28;20026;-70
2022/08/15 04:40:14;;;;;;;17.40;5.20;;;;;;;19.83;72.89;100273.47;4973406;28;20117;-71
2022/08/15 04:42:53;;;;;;;18.42;4.57;;;;;;;19.85;72.80;100268.56;4975977;28;20118;-71
2022/08/15 04:45:20;;;;;;;11.55;4.72;;;;;;;20.08;71.94;100268.63;4979983;28;20081;-71
2022/08/15 04:47:50;;;;;;;10.50;4.70;;;;;;;20.06;72.14;100274.34;4979211;28;20022;-72
2022/08/15 04:50:17;;;;;;;13.73;4.20;;;;;;;20.20;71.43;100269.47;4978458;28;20023;-71
2022/08/15 04:52:53;;;;;;;22.92;5.53;;;;;;;20.25;71.10;100266.03;4985082;28;20129;-72
2022/08/15 04:55:19;;;;;;;9.63;4.97;;;;;;;20.12;72.03;100256.09;4983846;28;20064;-72
2022/08/15 04:57:45;;;;;;;14.00;5.10;;;;;;;20.15;71.83;100261.13;4985333;28;20014;-71
2022/08/15 05:00:18;;;;;;;17.45;5.22;;;;;;;20.28;71.62;100260.91;4991154;28;20031;-71
2022/08/15 05:02:58;;;;;;;12.88;4.60;;;;;;;20.38;71.26;100259.47;4983914;28;20022;-70
2022/08/15 05:05:24;;;;;;;14.00;4.57;;;;;;;20.58;70.46;100255.31;4980758;28;20030;-72
2022/08/15 05:07:49;;;;;;;8.73;4.00;;;;;;;20.67;69.90;100255.81;4975797;28;20027;-72
2022/08/15 05:10:14;;;;;;;7.70;4.35;;;;;;;20.73;70.42;100257.59;4976018;28;20031;-69
2022/08/15 05:12:40;;;;;;;23.42;4.40;;;;;;;20.73;70.29;100257.59;4978063;28;20018;-70
2022/08/15 05:15:06;;;;;;;15.95;4.53;;;;;;;21.02;69.09;100257.69;4976484;28;20037;-70
2022/08/15 05:17:32;;;;;;;21.60;4.97;;;;;;;21.19;68.86;100250.38;4976005;28;20118;-70
2022/08/15 05:19:57;;;;;;;16.42;4.95;;;;;;;21.21;68.15;100242.69;4981240;28;20117;-69
2022/08/15 05:22:23;;;;;;;11.52;4.30;;;;;;;21.37;68.05;100247.44;4973527;28;20023;-71
2022/08/15 05:24:48;;;;;;;15.15;4.85;;;;;;;21.72;66.49;100237.41;4974969;28;20037;-71
2022/08/15 05:27:13;;;;;;;8.75;4.57;;;;;;;21.53;67.00;100251.38;4985390;28;20069;-72
2022/08/15 05:29:40;;;;;;;11.02;4.43;;;;;;;21.54;67.30;100252.19;4975435;28;20098;-72
2022/08/15 05:32:09;;;;;;;13.60;5.22;;;;;;;21.63;66.99;100246.03;4976076;28;20025;-72
2022/08/15 05:34:34;;;;;;;7.97;4.28;;;;;;;21.50;67.86;100245.50;4970718;28;20077;-70
2022/08/15 05:37:01;;;;;;;11.18;4.53;;;;;;;21.46;67.94;100238.81;4976135;28;20019;-70
2022/08/15 05:39:31;;;;;;;8.85;3.75;;;;;;;21.57;67.50;100237.91;4977417;28;20050;-72
2022/08/15 05:42:06;;;;;;;8.95;4.32;;;;;;;21.72;67.01;100243.72;4983595;28;20022;-71
2022/08/15 05:44:37;;;;;;;13.55;4.90;;;;;;;21.72;67.18;100242.91;4976380;28;20026;-70
2022/08/15 05:47:28;;;;;;;12.20;5.63;;;;;;;21.51;67.84;100241.66;4982941;28;20029;-71
2022/08/15 05:49:55;;;;;;;20.23;5.45;;;;;;;21.71;67.60;100242.03;4976182;28;20116;-70
2022/08/15 05:52:34;;;;;;;13.60;5.55;;;;;;;21.71;67.49;100246.72;4978881;28;20022;-71
2022/08/15 05:55:27;;;;;;;13.38;4.72;;;;;;;21.95;66.56;100243.59;4980766;28;20090;-70
2022/08/15 05:58:28;;;;;;;14.23;5.35;;;;;;;22.23;65.68;100243.81;4972317;28;20022;-71
2022/08/15 06:01:04;;;;;;;14.15;5.28;;;;;;;22.17;65.73;100234.66;4980331;28;20105;-70
2022/08/15 06:03:33;;;;;;;15.13;4.72;;;;;;;22.32;65.20;100232.13;4974374;28;20086;-72
2022/08/15 06:06:06;;;;;;;13.27;4.82;;;;;;;22.48;65.16;100235.94;4981386;28;20045;-70
2022/08/15 06:08:36;;;;;;;11.30;4.68;;;;;;;22.78;64.04;100235.56;4974648;28;20041;-70
2022/08/15 06:11:18;;;;;;;16.05;5.75;;;;;;;22.80;64.56;100227.03;4971468;28;20041;-72
2022/08/15 06:13:45;;;;;;;;;;;;;;;22.92;63.86;100231.38;4979895;28;20109;-72
2022/08/15 06:16:31;;;;;;;12.60;5.43;;;;;;;22.95;63.83;100236.41;4997862;28;20004;-70
2022/08/15 06:19:06;;;;;;;16.52;5.07;;;;;;;22.90;63.97;100233.56;4989337;28;20054;-72
2022/08/15 06:21:44;;;;;;;15.13;5.28;;;;;;;23.30;63.29;100229.66;4985250;28;20022;-70
2022/08/15 06:24:37;;;;;;;14.95;5.00;;;;;;;23.55;62.31;100229.97;4983674;28;20491;-70
2022/08/15 06:27:09;;;;;;;20.10;5.07;;;;;;;23.50;62.35;100227.13;4986987;28;20022;-69
2022/08/15 06:29:43;;;;;;;18.33;5.60;;;;;;;23.66;61.29;100230.09;4978728;28;20026;-69
2022/08/15 06:32:39;;;;;;;14.65;5.47;;;;;;;23.91;61.00;100227.56;4977772;28;20042;-68
2022/08/15 06:35:21;;;;;;;12.50;5.28;;;;;;;23.78;61.43;100230.75;4970357;28;20129;-70
2022/08/15 06:38:08;;;;;;;16.90;6.30;;;;;;;23.98;60.59;100228.19;4982365;28;20117;-70
2022/08/15 06:41:01;;;;;;;12.73;6.22;;;;;;;23.95;60.75;100228.72;4982826;28;20027;-70
2022/08/15 06:43:28;;;;;;;19.15;6.78;;;;;;;24.13;59.96;100223.91;4979643;28;20113;-70
2022/08/15 06:45:56;;;;;;;11.75;6.22;;;;;;;24.18;60.21;100216.47;4985593;28;20022;-70
2022/08/15 06:48:25;;;;;;;10.63;5.95;;;;;;;24.50;59.46;100219.22;4957453;28;20022;-71
2022/08/15 06:54:32;;;;;;;14.68;5.65;;;;;;;24.01;60.89;100216.63;4953605;28;20118;-77
2022/08/15 06:57:21;;;;;;;14.75;5.68;;;;;;;24.03;60.56;100225.47;4993414;28;20121;-77
2022/08/15 07:00:19;;;;;;;25.92;6.72;;;;;;;24.12;60.84;100208.38;4971883;28;20051;-77
2022/08/15 07:03:05;;;;;;;14.50;6.45;;;;;;;23.85;61.50;100217.56;4988714;28;20026;-77
2022/08/15 07:06:13;;;;;;;14.27;7.03;;;;;;;24.15;60.99;100216.19;4987974;28;20022;-77
2022/08/15 07:09:17;;;;;;;17.17;6.43;;;;;;;24.30;60.78;100213.53;4949359;28;20077;-77
2022/08/15 07:12:31;;;;;;;16.98;6.05;;;;;;;24.16;60.99;100217.84;4974179;28;20022;-78
2022/08/15 07:15:25;;;;;;;15.98;6.05;;;;;;;24.64;59.67;100209.34;4962283;28;20030;-77
2022/08/15 07:18:24;;;;;;;12.38;7.18;;;;;;;24.64;59.80;100212.13;4965449;28;20019;-77
2022/08/15 07:21:25;;;;;;;10.02;5.63;;;;;;;24.75;60.01;100209.44;4979086;28;20034;-77
2022/08/15 07:24:17;;;;;;;19.98;6.20;;;;;;;24.81;60.01;100208.34;4987098;28;20027;-77
2022/08/15 07:27:36;;;;;;;23.85;6.55;;;;;;;24.83;59.79;100211.69;4978820;28;20030;-78
2022/08/15 07:30:36;;;;;;;14.48;7.00;;;;;;;24.98;59.82;100197.94;4979029;28;20039;-77
2022/08/15 07:37:38;;;;;;;17.13;6.72;;;;;;;25.41;57.99;100206.97;4951763;28;20109;-78
2022/08/15 07:47:13;;;;;;;12.82;6.57;;;;;;;25.89;56.35;100207.66;4983550;28;20022;-76
2022/08/15 07:50:04;;;;;;;19.15;6.18;;;;;;;26.16;55.80;100202.69;4985242;28;20058;-76
2022/08/15 07:56:29;;;;;;;14.10;6.25;;;;;;;26.80;54.35;100209.56;4978553;28;20130;-76
2022/08/15 07:59:25;;;;;;;12.95;6.38;;;;;;;26.70;54.69;100202.06;4982764;28;20106;-76
2022/08/15 08:02:31;;;;;;;9.13;6.35;;;;;;;26.50;54.91;100199.34;4976118;28;20018;-75
2022/08/15 08:05:10;;;;;;;12.13;6.47;;;;;;;26.50;54.69;100202.13;4972381;28;20034;-76
2022/08/15 08:08:17;;;;;;;12.70;6.47;;;;;;;26.87;54.06;100192.59;4970724;28;20031;-76
2022/08/15 08:11:06;;;;;;;10.02;6.60;;;;;;;26.89;53.70;100193.13;4991013;28;20032;-76
2022/08/15 08:13:53;;;;;;;8.88;6.05;;;;;;;27.34;52.73;100200.47;4975223;28;20022;-76
2022/08/15 08:17:20;;;;;;;11.82;6.78;;;;;;;27.49;52.63;100191.22;4990619;28;20037;-76
2022/08/15 08:20:03;;;;;;;9.98;6.60;;;;;;;27.27;52.17;100195.22;4990488;28;20058;-78
2022/08/15 08:22:55;;;;;;;18.20;6.57;;;;;;;27.65;51.14;100190.00;4990377;28;20043;-78
2022/08/15 08:26:08;;;;;;;12.38;6.78;;;;;;;28.03;50.47;100195.84;4977303;28;20035;-78
2022/08/15 08:29:39;;;;;;;14.55;6.88;;;;;;;28.11;49.79;100195.25;4963790;28;20042;-77
2022/08/15 08:32:27;;;;;;;13.80;6.63;;;;;;;28.05;49.79;100199.19;4983020;28;20030;-76
2022/08/15 08:35:26;;;;;;;22.30;7.32;;;;;;;28.44;48.94;100195.53;4989337;28;20077;-77
2022/08/15 08:38:42;;;;;;;29.95;7.20;;;;;;;28.53;48.88;100199.34;4990419;28;20042;-79
2022/08/15 08:42:01;;;;;;;11.88;6.15;;;;;;;28.89;48.51;100208.97;4982535;28;20039;-78
2022/08/15 08:44:55;;;;;;;17.38;5.90;;;;;;;28.99;47.76;100196.06;4972697;28;20050;-78
2022/08/15 08:47:48;;;;;;;12.63;6.95;;;;;;;29.54;46.66;100193.69;4981139;28;20125;-78
2022/08/15 08:50:38;;;;;;;14.45;7.07;;;;;;;29.22;46.47;100194.41;4976430;28;20042;-77
2022/08/15 08:54:17;;;;;;;10.63;6.70;;;;;;;29.28;46.01;100199.59;4971719;28;20035;-77
2022/08/15 09:00:44;;;;;;;17.65;6.97;;;;;;;29.23;46.61;100196.88;4976632;28;20035;-76
2022/08/15 09:04:03;;;;;;;13.73;6.65;;;;;;;29.13;46.88;100192.25;4950182;28;20035;-77
2022/08/15 09:06:51;;;;;;;15.93;6.57;;;;;;;29.34;46.42;100194.78;4985126;28;20026;-77
2022/08/15 09:10:11;;;;;;;13.85;6.78;;;;;;;29.38;46.17;100202.25;4951972;28;20049;-76
2022/08/15 09:15:48;;;;;;;21.25;7.10;;;;;;;29.88;45.44;100191.50;4975655;28;20026;-77
2022/08/15 09:18:29;;;;;;;21.70;7.60;;;;;;;29.69;45.15;100193.47;4993660;28;20057;-78
2022/08/15 09:21:03;;;;;;;12.93;7.07;;;;;;;29.58;45.21;100186.38;4980020;28;20065;-76
2022/08/15 09:23:50;;;;;;;17.58;6.68;;;;;;;29.90;44.84;100180.84;4995716;28;20018;-77
2022/08/15 09:27:07;;;;;;;14.40;7.45;;;;;;;29.98;44.83;100180.16;4970070;28;20043;-76
2022/08/15 09:29:43;;;;;;;;;;;;;;;30.46;43.55;100179.91;4972602;28;20038;-76
2022/08/15 09:32:38;;;;;;;17.05;7.15;;;;;;;30.30;43.33;100174.91;4993531;28;19910;-77
2022/08/15 09:43:19;;;;;;;15.77;7.40;;;;;;;30.50;43.59;100175.34;4966261;28;20033;-82
2022/08/15 09:58:11;;;;;;;16.40;6.95;;;;;;;31.52;40.42;100156.50;4917024;29;20526;-81
2022/08/15 10:04:44;;;;;;;29.35;7.22;;;;;;;31.61;41.74;100149.00;4986227;23;20061;-69
2022/08/15 10:07:09;;;;;;;17.20;6.50;;;;;;;31.70;40.81;100157.47;4974025;28;20031;-69
2022/08/15 10:09:40;;;;;;;15.63;7.18;;;;;;;31.70;40.48;100159.47;4976580;28;20103;-70
2022/08/15 10:12:06;;;;;;;26.50;7.75;;;;;;;31.51;40.53;100154.84;4980113;28;20124;-69
2022/08/15 10:14:47;;;;;;;20.40;7.03;;;;;;;32.09;39.22;100158.78;4974620;28;20518;-68
2022/08/15 10:17:35;;;;;;;24.52;7.60;;;;;;;32.00;39.35;100150.31;4969431;28;20398;-68
2022/08/15 10:20:15;;;;;;;20.40;7.43;;;;;;;31.82;39.70;100160.56;4977533;28;20457;-69
2022/08/15 10:22:59;;;;;;;18.83;6.85;;;;;;;31.86;39.00;100138.34;4979743;28;20022;-70
2022/08/15 10:25:25;;;;;;;18.33;7.40;;;;;;;32.01;39.03;100154.75;4975362;28;20089;-70
2022/08/15 10:28:05;;;;;;;13.07;7.05;;;;;;;31.48;39.93;100146.25;4972154;28;20018;-69
2022/08/15 10:30:36;;;;;;;12.70;6.93;;;;;;;32.02;39.23;100148.03;4975617;28;20110;-69
2022/08/15 10:33:25;;;;;;;14.00;6.85;;;;;;;32.12;39.19;100142.16;4976787;28;20030;-68
2022/08/15 10:35:54;;;;;;;14.73;7.70;;;;;;;32.22;38.83;100145.84;4977233;28;20104;-70
2022/08/15 10:38:25;;;;;;;17.90;7.10;;;;;;;32.57;38.60;100139.28;4974261;28;20031;-68
2022/08/15 10:40:57;;;;;;;21.58;6.53;;;;;;;32.65;38.23;100144.09;4974714;28;20027;-70
2022/08/15 10:43:44;;;;;;;9.95;6.95;;;;;;;32.63;37.98;100140.81;4965036;28;20195;-69
2022/08/15 10:46:38;;;;;;;10.32;6.70;;;;;;;32.95;37.44;100141.59;4977309;28;20034;-70
2022/08/15 10:49:42;;;;;;;17.33;7.90;;;;;;;32.98;38.12;100146.53;4977243;28;20022;-72
2022/08/15 10:52:38;;;;;;;15.75;6.93;;;;;;;33.08;37.78;100134.22;4970028;28;20049;-68
2022/08/15 10:55:13;;;;;;;13.40;6.65;;;;;;;33.16;36.50;100131.41;4970116;28;20058;-68
2022/08/15 10:58:07;;;;;;;18.85;6.47;;;;;;;33.29;36.69;100128.78;4976058;28;20061;-68
2022/08/15 11:01:02;;;;;;;13.32;7.32;;;;;;;33.36;37.04;100117.91;4979635;28;20041;-69
2022/08/15 11:03:41;;;;;;;10.82;7.00;;;;;;;33.40;35.95;100124.53;4974714;28;20054;-67
2022/08/15 11:06:12;;;;;;;19.38;6.63;;;;;;;33.58;35.89;100125.34;4967327;28;20027;-68
2022/08/15 11:08:54;;;;;;;14.52;6.70;;;;;;;33.61;35.67;100121.91;4979445;28;20029;-69
2022/08/15 11:11:23;;;;;;;19.23;7.03;;;;;;;33.85;35.78;100124.19;4974222;28;20018;-68
2022/08/15 11:13:58;;;;;;;32.50;7.60;;;;;;;33.98;34.92;100128.84;4977618;28;20026;-69
2022/08/15 11:16:31;;;;;;;12.10;7.30;;;;;;;33.57;35.19;100118.91;4974316;28;20014;-68
2022/08/15 11:18:58;;;;;;;12.02;6.53;;;;;;;33.77;34.76;100123.03;4979177;28;20022;-68
2022/08/15 11:21:42;;;;;;;15.13;6.40;;;;;;;34.17;34.50;100125.63;4969685;28;20499;-68
2022/08/15 11:24:09;;;;;;;9.93;6.93;;;;;;;33.99;34.57;100116.44;4967805;28;20109;-68
2022/08/15 11:26:41;;;;;;;9.20;6.40;;;;;;;34.43;34.44;100122.75;4969803;28;20105;-68
2022/08/15 11:29:10;;;;;;;16.90;6.18;;;;;;;34.61;34.25;100113.09;4983051;28;20018;-70
2022/08/15 11:31:44;;;;;;;11.50;6.70;;;;;;;34.43;33.98;100111.53;4974079;28;20022;-69
2022/08/15 11:34:20;;;;;;;13.20;7.50;;;;;;;34.32;34.09;100116.66;4971487;28;20405;-69
2022/08/15 11:36:46;;;;;;;18.58;6.75;;;;;;;34.54;33.99;100110.81;4971528;28;20066;-68
2022/08/15 11:39:14;;;;;;;13.40;6.57;;;;;;;35.04;32.88;100109.25;4973586;28;20018;-68
2022/08/15 11:41:43;;;;;;;17.45;7.10;;;;;;;35.10;33.73;100112.69;4970814;28;20026;-68
2022/08/15 11:44:10;;;;;;;12.45;7.10;;;;;;;35.61;32.36;100105.88;4978333;28;20027;-68
2022/08/15 11:46:37;;;;;;;14.25;6.38;;;;;;;35.22;33.48;100105.16;4973930;28;20023;-68
2022/08/15 11:49:09;;;;;;;16.35;6.65;;;;;;;35.35;33.18;100092.81;4979289;28;20077;-69
2022/08/15 11:51:40;;;;;;;14.10;6.68;;;;;;;35.90;31.86;100099.28;4980001;28;20045;-68
2022/08/15 11:54:11;;;;;;;12.90;6.90;;;;;;;35.81;32.29;100093.75;4974358;28;20030;-69
2022/08/15 11:56:49;;;;;;;14.40;6.00;;;;;;;36.21;30.76;100101.63;4968335;28;20037;-68
2022/08/15 11:59:30;;;;;;;18.17;6.40;;;;;;;35.95;30.98;100092.63;4979478;28;20440;-69
2022/08/15 12:02:08;;;;;;;12.30;6.47;;;;;;;35.93;30.56;100092.16;4976553;28;20073;-71
2022/08/15 12:04:38;;;;;;;10.10;6.35;;;;;;;36.17;30.47;100095.03;4972794;28;20069;-69
2022/08/15 12:07:15;;;;;;;13.48;5.88;;;;;;;36.11;29.70;100079.50;4964816;28;20022;-71
2022/08/15 12:09:51;;;;;;;12.10;5.97;;;;;;;36.23;30.29;100082.34;4971967;28;20031;-70
2022/08/15 12:12:42;;;;;;;8.85;5.68;;;;;;;35.58;30.63;100072.75;4982336;28;20023;-71
2022/08/15 12:15:13;;;;;;;;;;;;;;;36.10;30.44;100078.69;4965519;28;20034;-70
2022/08/15 12:17:45;;;;;;;10.75;5.50;;;;;;;36.59;29.44;100075.16;4993498;28;19910;-69
2022/08/15 12:20:10;;;;;;;9.05;5.78;;;;;;;36.33;29.30;100070.63;4972543;28;20533;-70
2022/08/15 12:22:42;;;;;;;9.82;5.88;;;;;;;36.59;28.83;100063.88;4968464;28;20034;-69
2022/08/15 12:25:10;;;;;;;8.68;5.72;;;;;;;36.85;28.29;100074.78;4979057;28;20060;-70
2022/08/15 12:27:37;;;;;;;11.23;6.18;;;;;;;36.72;28.87;100059.84;4972187;28;20023;-70
2022/08/15 12:30:09;;;;;;;9.27;5.57;;;;;;;36.44;29.20;100070.19;4977461;28;20022;-70
2022/08/15 12:32:35;;;;;;;10.48;6.18;;;;;;;36.82;28.00;100065.00;4970988;28;20022;-70
2022/08/15 12:35:03;;;;;;;11.80;5.55;;;;;;;36.81;28.48;100062.53;4974149;28;20102;-71
2022/08/15 12:37:28;;;;;;;12.98;6.00;;;;;;;37.02;28.28;100057.59;4984318;28;20104;-70
2022/08/15 12:40:00;;;;;;;11.45;5.72;;;;;;;37.41;27.82;100050.31;4974162;28;20074;-71
2022/08/15 12:42:29;;;;;;;10.38;5.53;;;;;;;38.08;27.22;100046.94;4980931;28;20550;-69
2022/08/15 12:44:58;;;;;;;6.88;5.13;;;;;;;38.53;27.14;100052.16;4981312;28;20022;-71
2022/08/15 12:47:29;;;;;;;10.13;5.80;;;;;;;38.51;26.82;100048.88;4981484;28;20114;-71
2022/08/15 12:49:55;;;;;;;12.00;6.05;;;;;;;38.36;27.27;100053.38;4976301;28;20106;-71
2022/08/15 12:52:22;;;;;;;7.47;6.00;;;;;;;37.84;26.56;100043.09;4968267;28;20154;-71